createdAt,value
2023-03-26T00:00:17.284Z,56.50
2023-03-26T00:01:21.374Z,56.78
2023-03-26T00:02:23.854Z,57.95
2023-03-26T00:03:26.759Z,58.87
2023-03-26T00:04:28.273Z,58.20
2023-03-26T00:05:32.083Z,57.91
2023-03-26T00:06:37.549Z,57.43
2023-03-26T00:07:39.626Z,59.14
2023-03-26T00:08:42.677Z,57.99
2023-03-26T00:09:44.306Z,57.48
2023-03-26T00:10:46.824Z,57.51
2023-03-26T00:11:48.402Z,57.82
2023-03-26T00:12:49.900Z,57.94
2023-03-26T00:13:53.737Z,57.39
2023-03-26T00:14:55.221Z,56.77
2023-03-26T00:15:56.730Z,56.66
2023-03-26T00:16:58.441Z,57.09
2023-03-26T00:18:00.790Z,57.04
2023-03-26T00:19:02.674Z,56.62
2023-03-26T00:20:05.182Z,57.12
2023-03-26T00:21:07.744Z,56.98
2023-03-26T00:22:13.431Z,56.38
2023-03-26T00:23:14.926Z,56.65
2023-03-26T00:24:17.946Z,56.49
2023-03-26T00:25:20.533Z,55.22
2023-03-26T00:26:22.581Z,55.21
2023-03-26T00:27:25.758Z,55.43
2023-03-26T00:28:27.888Z,55.55
2023-03-26T00:29:33.222Z,56.43
2023-03-26T00:30:35.717Z,56.67
2023-03-26T00:31:40.994Z,56.65
2023-03-26T00:32:43.522Z,57.22
2023-03-26T00:33:45.156Z,56.74
2023-03-26T00:34:46.733Z,56.96
2023-03-26T00:35:54.944Z,56.16
2023-03-26T00:37:02.388Z,56.45
2023-03-26T00:38:04.394Z,56.19
2023-03-26T00:39:06.259Z,55.86
2023-03-26T00:40:11.001Z,55.83
2023-03-26T00:41:26.304Z,56.96
2023-03-26T00:42:31.921Z,57.89
2023-03-26T00:43:34.977Z,57.35
2023-03-26T00:44:36.504Z,57.60
2023-03-26T00:45:38.004Z,57.59
2023-03-26T00:46:39.618Z,57.03
2023-03-26T00:47:41.274Z,56.62
2023-03-26T00:48:47.434Z,56.75
2023-03-26T00:49:48.955Z,56.74
2023-03-26T00:50:50.531Z,56.49
2023-03-26T00:51:52.982Z,56.40
2023-03-26T00:52:55.891Z,56.56
2023-03-26T00:53:57.597Z,56.90
2023-03-26T00:54:59.200Z,57.35
2023-03-26T00:56:00.973Z,57.30
2023-03-26T00:57:03.020Z,56.96
2023-03-26T00:58:04.541Z,56.52
2023-03-26T00:59:06.489Z,56.65
2023-03-26T01:00:10.771Z,56.14
2023-03-26T01:01:14.030Z,58.26
2023-03-26T01:02:18.861Z,57.52
2023-03-26T01:03:27.774Z,57.29
2023-03-26T01:04:31.944Z,57.01
2023-03-26T01:05:36.677Z,56.73
2023-03-26T01:06:41.268Z,56.42
2023-03-26T01:07:42.771Z,56.36
2023-03-26T01:08:47.118Z,56.01
2023-03-26T01:09:52.305Z,56.90
2023-03-26T01:11:02.766Z,56.23
2023-03-26T01:12:06.665Z,55.52
2023-03-26T01:13:08.494Z,56.23
2023-03-26T01:14:16.700Z,56.37
2023-03-26T01:15:18.230Z,56.33
2023-03-26T01:16:26.011Z,56.14
2023-03-26T01:17:33.994Z,56.11
2023-03-26T01:18:41.351Z,55.50
2023-03-26T01:19:45.936Z,55.71
2023-03-26T01:20:49.739Z,55.73
2023-03-26T01:21:51.257Z,55.64
2023-03-26T01:22:54.652Z,56.19
2023-03-26T01:23:57.754Z,55.95
2023-03-26T01:24:59.240Z,55.77
2023-03-26T01:26:24.315Z,56.38
2023-03-26T01:27:38.993Z,56.94
2023-03-26T01:28:41.330Z,56.16
2023-03-26T01:29:48.125Z,56.79
2023-03-26T01:31:15.124Z,56.90
2023-03-26T01:32:47.638Z,56.60
2023-03-26T01:33:51.900Z,56.24
2023-03-26T01:35:06.672Z,55.96
2023-03-26T01:36:17.226Z,55.63
2023-03-26T01:37:46.861Z,55.71
2023-03-26T01:39:25.267Z,56.98
2023-03-26T01:40:42.863Z,56.84
2023-03-26T01:41:45.832Z,57.10
2023-03-26T01:42:50.707Z,57.30
2023-03-26T01:44:02.595Z,57.44
2023-03-26T01:45:10.515Z,59.33
2023-03-26T01:46:12.774Z,58.12
2023-03-26T01:47:14.424Z,57.69
2023-03-26T01:48:16.210Z,57.28
2023-03-26T01:49:17.925Z,57.27
2023-03-26T01:50:19.433Z,56.80
2023-03-26T01:51:32.332Z,57.83
2023-03-26T01:52:34.247Z,57.79
2023-03-26T01:53:38.223Z,57.35
2023-03-26T01:54:39.766Z,57.72
2023-03-26T01:56:15.224Z,58.17
2023-03-26T01:57:49.451Z,58.20
2023-03-26T01:59:41.579Z,57.61
2023-03-26T02:00:48.676Z,57.47
2023-03-26T02:02:02.115Z,58.29
2023-03-26T02:03:24.676Z,57.52
2023-03-26T02:04:40.443Z,57.05
2023-03-26T02:05:44.144Z,56.57
2023-03-26T02:07:02.073Z,56.61
2023-03-26T02:08:35.830Z,57.17
2023-03-26T02:09:45.798Z,58.06
2023-03-26T02:10:47.825Z,59.27
2023-03-26T02:11:49.359Z,61.51
2023-03-26T02:12:50.913Z,61.42
2023-03-26T02:13:52.436Z,59.99
2023-03-26T02:14:53.957Z,59.14
2023-03-26T02:16:00.321Z,59.04
2023-03-26T02:17:02.099Z,59.46
2023-03-26T02:18:04.391Z,59.61
2023-03-26T02:19:05.906Z,59.41
2023-03-26T02:20:10.054Z,60.70
2023-03-26T02:21:14.032Z,60.79
2023-03-26T02:22:15.839Z,60.13
2023-03-26T02:23:17.846Z,61.13
2023-03-26T02:24:19.625Z,60.90
2023-03-26T02:25:21.633Z,59.61
2023-03-26T02:26:23.144Z,59.66
2023-03-26T02:27:24.742Z,58.98
2023-03-26T02:28:26.264Z,58.68
2023-03-26T02:29:27.898Z,59.60
2023-03-26T02:30:29.875Z,60.25
2023-03-26T02:31:31.620Z,59.72
2023-03-26T02:32:33.206Z,59.54
2023-03-26T02:33:34.792Z,61.26
2023-03-26T02:34:36.939Z,60.44
2023-03-26T02:35:38.624Z,61.14
2023-03-26T02:36:42.874Z,61.49
2023-03-26T02:37:46.780Z,61.20
2023-03-26T02:38:48.847Z,60.80
2023-03-26T02:39:50.373Z,59.74
2023-03-26T02:40:52.560Z,59.52
2023-03-26T02:41:54.451Z,59.08
2023-03-26T02:42:56.154Z,59.64
2023-03-26T02:43:57.992Z,59.66
2023-03-26T02:44:59.500Z,59.17
2023-03-26T02:46:01.024Z,58.70
2023-03-26T02:47:02.583Z,58.38
2023-03-26T02:48:04.378Z,58.76
2023-03-26T02:49:06.651Z,58.60
2023-03-26T02:50:09.055Z,58.53
2023-03-26T02:51:10.849Z,58.43
2023-03-26T02:52:12.414Z,59.49
2023-03-26T02:53:13.936Z,60.32
2023-03-26T02:54:16.799Z,59.47
2023-03-26T02:55:18.340Z,59.79
2023-03-26T02:56:19.849Z,58.80
2023-03-26T02:57:21.767Z,58.78
2023-03-26T02:58:25.645Z,59.85
2023-03-26T02:59:27.373Z,60.45
2023-03-26T03:00:29.049Z,59.68
2023-03-26T03:01:30.938Z,60.29
2023-03-26T03:02:32.595Z,59.46
2023-03-26T03:03:34.819Z,58.81
2023-03-26T03:04:36.355Z,58.79
2023-03-26T03:05:39.062Z,58.54
2023-03-26T03:06:40.692Z,59.19
2023-03-26T03:07:42.211Z,58.75
2023-03-26T03:08:46.391Z,59.59
2023-03-26T03:09:50.630Z,58.49
2023-03-26T03:11:07.977Z,58.46
2023-03-26T03:12:09.476Z,57.73
2023-03-26T03:13:10.986Z,58.10
2023-03-26T03:14:12.504Z,59.00
2023-03-26T03:15:14.148Z,58.29
2023-03-26T03:16:15.945Z,58.19
2023-03-26T03:17:17.544Z,58.55
2023-03-26T03:18:19.140Z,58.37
2023-03-26T03:19:20.679Z,58.24
2023-03-26T03:20:22.256Z,58.41
2023-03-26T03:21:24.454Z,58.96
2023-03-26T03:22:26.000Z,58.12
2023-03-26T03:23:27.608Z,58.07
2023-03-26T03:24:29.214Z,58.23
2023-03-26T03:25:30.768Z,58.27
2023-03-26T03:26:32.254Z,58.00
2023-03-26T03:27:33.754Z,57.98
2023-03-26T03:28:35.673Z,58.64
2023-03-26T03:29:37.757Z,58.41
2023-03-26T03:30:39.398Z,57.71
2023-03-26T03:31:41.684Z,57.83
2023-03-26T03:32:43.213Z,57.47
2023-03-26T03:33:46.631Z,57.35
2023-03-26T03:34:50.736Z,57.43
2023-03-26T03:35:52.478Z,57.45
2023-03-26T03:36:54.109Z,57.56
2023-03-26T03:37:58.432Z,57.49
2023-03-26T03:39:02.488Z,56.93
2023-03-26T03:40:08.250Z,57.44
2023-03-26T03:41:09.900Z,56.75
2023-03-26T03:42:11.437Z,57.87
2023-03-26T03:43:13.266Z,57.26
2023-03-26T03:44:14.777Z,56.84
2023-03-26T03:45:16.388Z,57.33
2023-03-26T03:46:17.972Z,58.53
2023-03-26T03:47:20.391Z,58.79
2023-03-26T03:48:22.275Z,58.62
2023-03-26T03:49:23.809Z,58.02
2023-03-26T03:50:25.401Z,58.18
2023-03-26T03:51:26.958Z,58.26
2023-03-26T03:52:28.449Z,57.42
2023-03-26T03:53:30.804Z,57.58
2023-03-26T03:54:32.326Z,58.61
2023-03-26T03:55:33.924Z,57.91
2023-03-26T03:56:36.112Z,58.08
2023-03-26T03:57:38.208Z,57.64
2023-03-26T03:58:40.989Z,57.62
2023-03-26T03:59:47.443Z,57.86
2023-03-26T04:00:50.388Z,58.03
2023-03-26T04:01:51.894Z,57.84
2023-03-26T04:02:54.747Z,58.02
2023-03-26T04:03:57.027Z,58.41
2023-03-26T04:04:58.688Z,58.33
2023-03-26T04:06:00.595Z,57.92
2023-03-26T04:07:02.198Z,58.45
2023-03-26T04:08:04.029Z,58.84
2023-03-26T04:09:05.584Z,58.08
2023-03-26T04:10:08.590Z,58.38
2023-03-26T04:11:10.736Z,57.16
2023-03-26T04:12:12.236Z,57.59
2023-03-26T04:13:14.161Z,57.35
2023-03-26T04:14:15.812Z,57.96
2023-03-26T04:15:17.383Z,58.18
2023-03-26T04:16:18.937Z,58.05
2023-03-26T04:17:23.739Z,57.77
2023-03-26T04:18:26.358Z,58.25
2023-03-26T04:19:27.881Z,58.00
2023-03-26T04:20:29.377Z,58.25
2023-03-26T04:21:31.030Z,58.05
2023-03-26T04:22:34.739Z,59.14
2023-03-26T04:23:36.514Z,59.94
2023-03-26T04:24:40.134Z,59.05
2023-03-26T04:25:48.493Z,60.20
2023-03-26T04:26:50.983Z,60.69
2023-03-26T04:27:55.963Z,59.98
2023-03-26T04:29:01.068Z,59.82
2023-03-26T04:30:02.843Z,60.53
2023-03-26T04:31:04.569Z,60.81
2023-03-26T04:32:08.924Z,62.33
2023-03-26T04:33:10.557Z,61.53
2023-03-26T04:34:24.406Z,61.35
2023-03-26T04:35:26.123Z,60.72
2023-03-26T04:36:29.569Z,61.95
2023-03-26T04:37:34.483Z,61.49
2023-03-26T04:38:53.894Z,61.67
2023-03-26T04:39:55.524Z,60.59
2023-03-26T04:41:00.841Z,61.08
2023-03-26T04:42:03.212Z,60.00
2023-03-26T04:43:05.136Z,61.43
2023-03-26T04:44:06.930Z,61.25
2023-03-26T04:45:08.724Z,61.11
2023-03-26T04:46:10.624Z,61.58
2023-03-26T04:47:12.177Z,61.68
2023-03-26T04:48:14.668Z,62.64
2023-03-26T04:49:16.172Z,61.99
2023-03-26T04:50:17.778Z,61.37
2023-03-26T04:51:21.925Z,62.27
2023-03-26T04:52:23.489Z,62.00
2023-03-26T04:53:25.173Z,61.79
2023-03-26T04:54:26.714Z,61.90
2023-03-26T04:55:32.088Z,61.66
2023-03-26T04:56:39.387Z,61.31
2023-03-26T04:57:44.029Z,62.97
2023-03-26T04:58:47.987Z,63.74
2023-03-26T04:59:50.115Z,63.31
2023-03-26T05:00:51.653Z,62.13
2023-03-26T05:01:53.582Z,61.93
2023-03-26T05:02:58.190Z,61.85
2023-03-26T05:03:59.809Z,61.93
2023-03-26T05:05:02.946Z,61.71
2023-03-26T05:06:04.623Z,63.19
2023-03-26T05:07:06.233Z,62.89
2023-03-26T05:08:07.808Z,62.24
2023-03-26T05:09:10.705Z,61.96
2023-03-26T05:10:13.459Z,62.18
2023-03-26T05:11:15.026Z,62.08
2023-03-26T05:12:16.630Z,61.25
2023-03-26T05:13:18.157Z,61.27
2023-03-26T05:14:19.713Z,61.43
2023-03-26T05:15:21.375Z,61.97
2023-03-26T05:16:24.010Z,61.93
2023-03-26T05:17:25.976Z,62.38
2023-03-26T05:18:27.530Z,61.77
2023-03-26T05:19:29.036Z,62.05
2023-03-26T05:20:31.206Z,61.54
2023-03-26T05:21:32.774Z,60.90
2023-03-26T05:22:35.411Z,61.40
2023-03-26T05:23:38.999Z,61.17
2023-03-26T05:24:40.702Z,60.67
2023-03-26T05:25:42.338Z,60.49
2023-03-26T05:26:43.855Z,61.11
2023-03-26T05:27:45.560Z,60.32
2023-03-26T05:28:47.148Z,61.00
2023-03-26T05:29:48.629Z,60.65
2023-03-26T05:30:53.239Z,61.58
2023-03-26T05:31:54.951Z,61.16
2023-03-26T05:32:56.808Z,60.82
2023-03-26T05:34:00.294Z,61.28
2023-03-26T05:35:01.979Z,61.03
2023-03-26T05:36:09.387Z,61.29
2023-03-26T05:37:10.976Z,60.15
2023-03-26T05:38:12.578Z,61.30
2023-03-26T05:39:14.317Z,61.08
2023-03-26T05:40:17.190Z,61.45
2023-03-26T05:41:18.796Z,61.37
2023-03-26T05:42:20.519Z,60.70
2023-03-26T05:43:22.465Z,61.01
2023-03-26T05:44:23.993Z,60.56
2023-03-26T05:45:25.757Z,60.53
2023-03-26T05:46:27.456Z,60.40
2023-03-26T05:47:29.297Z,61.17
2023-03-26T05:48:31.524Z,60.16
2023-03-26T05:49:33.067Z,60.35
2023-03-26T05:50:34.596Z,61.63
2023-03-26T05:51:36.144Z,61.08
2023-03-26T05:52:38.215Z,60.83
2023-03-26T05:53:39.741Z,60.50
2023-03-26T05:54:42.229Z,59.96
2023-03-26T05:55:45.751Z,59.61
2023-03-26T05:56:47.252Z,60.11
2023-03-26T05:57:49.168Z,60.24
2023-03-26T05:58:52.079Z,60.17
2023-03-26T05:59:53.821Z,59.68
2023-03-26T06:01:09.154Z,58.80
2023-03-26T06:02:11.169Z,59.62
2023-03-26T06:03:15.171Z,59.94
2023-03-26T06:04:17.654Z,59.33
2023-03-26T06:05:19.260Z,59.36
2023-03-26T06:06:20.898Z,59.46
2023-03-26T06:07:22.516Z,59.49
2023-03-26T06:08:24.676Z,59.19
2023-03-26T06:09:26.465Z,59.40
2023-03-26T06:10:28.108Z,58.99
2023-03-26T06:11:32.500Z,58.56
2023-03-26T06:12:34.024Z,58.81
2023-03-26T06:13:35.694Z,58.69
2023-03-26T06:14:37.312Z,58.58
2023-03-26T06:15:38.992Z,58.06
2023-03-26T06:16:40.507Z,58.48
2023-03-26T06:17:42.563Z,58.37
2023-03-26T06:18:44.457Z,58.51
2023-03-26T06:19:47.897Z,58.92
2023-03-26T06:20:49.410Z,59.60
2023-03-26T06:21:51.056Z,59.89
2023-03-26T06:22:52.643Z,59.68
2023-03-26T06:23:54.188Z,59.50
2023-03-26T06:24:56.232Z,59.12
2023-03-26T06:25:57.794Z,59.46
2023-03-26T06:26:59.338Z,59.55
2023-03-26T06:28:00.882Z,59.44
2023-03-26T06:29:02.484Z,58.83
2023-03-26T06:30:04.440Z,58.73
2023-03-26T06:31:06.056Z,59.16
2023-03-26T06:32:19.035Z,59.33
2023-03-26T06:33:23.459Z,59.06
2023-03-26T06:34:26.224Z,58.75
2023-03-26T06:35:29.966Z,58.93
2023-03-26T06:36:31.555Z,58.89
2023-03-26T06:37:33.089Z,59.07
2023-03-26T06:38:34.607Z,59.58
2023-03-26T06:39:36.150Z,58.92
2023-03-26T06:40:37.731Z,58.34
2023-03-26T06:41:39.268Z,59.42
2023-03-26T06:43:09.054Z,59.13
2023-03-26T06:44:02.475Z,58.72
2023-03-26T06:45:04.430Z,58.90
2023-03-26T06:46:06.362Z,58.90
2023-03-26T06:47:08.010Z,58.56
2023-03-26T06:48:09.877Z,58.21
2023-03-26T06:49:11.465Z,58.50
2023-03-26T06:50:13.062Z,59.10
2023-03-26T06:51:14.607Z,58.76
2023-03-26T06:52:16.424Z,58.13
2023-03-26T06:53:17.914Z,58.14
2023-03-26T06:54:19.483Z,57.94
2023-03-26T06:55:21.226Z,58.24
2023-03-26T06:56:22.768Z,58.52
2023-03-26T06:57:24.619Z,59.09
2023-03-26T06:58:26.150Z,58.92
2023-03-26T06:59:27.679Z,58.32
2023-03-26T07:00:29.285Z,58.14
2023-03-26T07:01:31.023Z,58.83
2023-03-26T07:02:32.846Z,58.38
2023-03-26T07:03:34.557Z,57.65
2023-03-26T07:04:36.180Z,58.01
2023-03-26T07:05:38.384Z,58.19
2023-03-26T07:06:40.001Z,60.68
2023-03-26T07:07:46.427Z,59.98
2023-03-26T07:08:48.879Z,58.86
2023-03-26T07:09:51.071Z,58.00
2023-03-26T07:10:52.806Z,58.13
2023-03-26T07:11:54.455Z,58.04
2023-03-26T07:12:56.151Z,57.93
2023-03-26T07:13:59.538Z,58.39
2023-03-26T07:15:01.955Z,57.79
2023-03-26T07:16:03.616Z,58.15
2023-03-26T07:17:05.238Z,57.99
2023-03-26T07:18:06.788Z,58.34
2023-03-26T07:19:08.328Z,57.98
2023-03-26T07:20:10.760Z,59.00
2023-03-26T07:21:12.826Z,58.79
2023-03-26T07:22:21.090Z,59.07
2023-03-26T07:23:23.231Z,58.78
2023-03-26T07:24:25.211Z,58.94
2023-03-26T07:25:27.026Z,58.86
2023-03-26T07:26:53.798Z,59.48
2023-03-26T07:28:13.181Z,58.26
2023-03-26T07:29:56.802Z,58.63
2023-03-26T07:31:20.051Z,59.38
2023-03-26T07:32:40.548Z,59.33
2023-03-26T07:33:51.297Z,58.57
2023-03-26T07:35:51.245Z,58.97
2023-03-26T07:36:57.581Z,58.50
2023-03-26T07:38:02.816Z,59.94
2023-03-26T07:39:28.126Z,59.77
2023-03-26T07:40:38.694Z,59.23
2023-03-26T07:41:47.116Z,59.06
2023-03-26T07:42:57.708Z,59.38
2023-03-26T07:44:05.990Z,59.29
2023-03-26T07:45:10.437Z,59.07
2023-03-26T07:46:12.774Z,59.01
2023-03-26T07:47:25.620Z,58.11
2023-03-26T07:48:29.673Z,58.39
2023-03-26T07:49:31.563Z,57.87
2023-03-26T07:50:33.282Z,58.19
2023-03-26T07:51:35.309Z,58.62
2023-03-26T07:52:37.165Z,58.61
2023-03-26T07:53:38.861Z,58.57
2023-03-26T07:54:40.532Z,59.04
2023-03-26T07:55:57.610Z,58.41
2023-03-26T07:57:02.065Z,59.77
2023-03-26T07:58:40.923Z,60.24
2023-03-26T07:59:48.047Z,59.65
2023-03-26T08:00:56.234Z,59.50
2023-03-26T08:02:03.623Z,58.94
2023-03-26T08:03:52.762Z,59.32
2023-03-26T08:05:02.898Z,59.59
2023-03-26T08:06:19.729Z,59.54
2023-03-26T08:07:58.685Z,60.06
2023-03-26T08:09:04.662Z,59.52
2023-03-26T08:10:12.294Z,59.42
2023-03-26T08:11:35.424Z,60.07
2023-03-26T08:12:49.298Z,60.69
2023-03-26T08:14:02.633Z,59.97
2023-03-26T08:15:40.854Z,60.98
2023-03-26T08:16:54.287Z,60.10
2023-03-26T08:18:03.964Z,60.07
2023-03-26T08:19:16.681Z,59.76
2023-03-26T08:20:43.644Z,61.36
2023-03-26T08:21:48.095Z,62.30
2023-03-26T08:22:51.908Z,60.76
2023-03-26T08:24:14.627Z,60.90
2023-03-26T08:25:43.379Z,60.49
2023-03-26T08:26:45.445Z,60.36
2023-03-26T08:28:05.713Z,60.09
2023-03-26T08:29:10.171Z,60.10
2023-03-26T08:30:19.481Z,60.81
2023-03-26T08:31:27.557Z,60.49
2023-03-26T08:32:29.772Z,61.50
2023-03-26T08:33:32.373Z,61.54
2023-03-26T08:34:33.922Z,62.12
2023-03-26T08:35:35.948Z,61.59
2023-03-26T08:36:37.546Z,61.01
2023-03-26T08:37:39.304Z,61.39
2023-03-26T08:38:40.850Z,61.22
2023-03-26T08:39:42.550Z,61.41
2023-03-26T08:40:49.751Z,60.90
2023-03-26T08:42:09.835Z,60.50
2023-03-26T08:43:33.141Z,61.38
2023-03-26T08:45:12.211Z,61.48
2023-03-26T08:46:23.592Z,62.64
2023-03-26T08:47:34.149Z,63.73
2023-03-26T08:48:56.357Z,63.02
2023-03-26T08:50:39.165Z,62.07
2023-03-26T08:52:16.298Z,62.26
2023-03-26T08:53:26.927Z,62.84
2023-03-26T08:54:40.507Z,63.16
2023-03-26T08:56:06.818Z,63.18
2023-03-26T08:57:20.957Z,62.72
2023-03-26T08:58:44.100Z,63.48
2023-03-26T09:00:20.188Z,63.42
2023-03-26T09:01:45.959Z,63.78
2023-03-26T09:03:12.744Z,63.88
2023-03-26T09:04:52.177Z,63.58
2023-03-26T09:06:12.117Z,63.02
2023-03-26T09:07:28.929Z,63.17
2023-03-26T09:09:07.875Z,63.83
2023-03-26T09:10:35.924Z,64.14
2023-03-26T09:12:12.941Z,64.10
2023-03-26T09:13:33.319Z,64.27
2023-03-26T09:15:20.371Z,63.35
2023-03-26T09:16:39.883Z,63.84
2023-03-26T09:18:26.119Z,64.37
2023-03-26T09:19:53.402Z,63.91
2023-03-26T09:21:09.521Z,64.40
2023-03-26T09:22:26.373Z,64.06
2023-03-26T09:23:27.814Z,64.28
2023-03-26T09:24:47.528Z,64.36
2023-03-26T09:26:10.746Z,64.96
2023-03-26T09:27:40.920Z,64.52
2023-03-26T09:29:13.237Z,64.58
2023-03-26T09:30:36.644Z,63.80
2023-03-26T09:31:44.029Z,63.95
2023-03-26T09:32:47.108Z,64.35
2023-03-26T09:33:59.949Z,64.25
2023-03-26T09:35:12.502Z,63.81
2023-03-26T09:36:36.721Z,63.80
2023-03-26T09:37:56.694Z,64.07
2023-03-26T09:39:08.708Z,64.69
2023-03-26T09:40:25.139Z,64.62
2023-03-26T09:41:43.492Z,64.43
2023-03-26T09:43:07.989Z,65.05
2023-03-26T09:44:25.379Z,65.56
2023-03-26T09:45:58.237Z,64.91
2023-03-26T09:47:22.316Z,65.18
2023-03-26T09:48:32.208Z,64.42
2023-03-26T09:49:57.556Z,64.62
2023-03-26T09:51:18.289Z,65.00
2023-03-26T09:52:57.267Z,66.05
2023-03-26T09:54:18.128Z,66.25
2023-03-26T09:55:46.912Z,66.46
2023-03-26T09:57:14.325Z,66.01
2023-03-26T09:58:46.424Z,65.61
2023-03-26T10:00:14.381Z,66.10
2023-03-26T10:01:54.236Z,65.77
2023-03-26T10:03:10.980Z,66.09
2023-03-26T10:04:45.347Z,66.57
2023-03-26T10:06:19.916Z,67.77
2023-03-26T10:07:52.268Z,66.47
2023-03-26T10:09:05.906Z,66.41
2023-03-26T10:10:32.128Z,66.45
2023-03-26T10:11:36.512Z,66.45
2023-03-26T10:12:46.013Z,66.45
2023-03-26T10:14:18.162Z,66.38
2023-03-26T10:15:40.860Z,66.75
2023-03-26T10:17:11.940Z,66.67
2023-03-26T10:18:56.784Z,65.61
2023-03-26T10:20:17.691Z,65.53
2023-03-26T10:21:28.395Z,66.73
2023-03-26T10:23:01.223Z,66.62
2023-03-26T10:24:30.591Z,66.10
2023-03-26T10:25:59.989Z,66.77
2023-03-26T10:27:10.859Z,66.82
2023-03-26T10:28:21.714Z,66.78
2023-03-26T10:29:53.175Z,66.87
2023-03-26T10:31:01.139Z,68.70
2023-03-26T10:32:18.070Z,69.45
2023-03-26T10:33:28.505Z,68.51
2023-03-26T10:34:35.888Z,67.93
2023-03-26T10:35:56.046Z,68.47
2023-03-26T10:36:57.806Z,68.73
2023-03-26T10:38:20.748Z,68.76
2023-03-26T10:39:36.360Z,67.76
2023-03-26T10:40:51.633Z,69.10
2023-03-26T10:42:06.735Z,68.78
2023-03-26T10:43:27.007Z,68.20
2023-03-26T10:44:37.472Z,68.12
2023-03-26T10:46:04.182Z,67.70
2023-03-26T10:47:33.924Z,68.07
2023-03-26T10:48:54.181Z,68.36
2023-03-26T10:50:23.945Z,69.46
2023-03-26T10:51:25.425Z,67.73
2023-03-26T10:52:58.570Z,67.96
2023-03-26T10:54:08.237Z,69.07
2023-03-26T10:55:14.410Z,68.84
2023-03-26T10:56:27.802Z,69.35
2023-03-26T10:57:52.728Z,68.65
2023-03-26T10:58:54.892Z,68.00
2023-03-26T10:59:58.342Z,68.07
2023-03-26T11:01:11.656Z,68.54
2023-03-26T11:02:33.020Z,66.83
2023-03-26T11:03:54.787Z,68.06
2023-03-26T11:05:18.047Z,69.22
2023-03-26T11:06:25.746Z,69.68
2023-03-26T11:07:38.707Z,68.94
2023-03-26T11:08:45.960Z,68.43
2023-03-26T11:10:09.259Z,68.46
2023-03-26T11:11:31.842Z,68.20
2023-03-26T11:12:35.716Z,67.62
2023-03-26T11:13:43.162Z,66.51
2023-03-26T11:15:01.316Z,66.15
2023-03-26T11:16:04.652Z,67.03
2023-03-26T11:17:40.917Z,67.19
2023-03-26T11:18:59.881Z,67.08
2023-03-26T11:20:21.375Z,67.16
2023-03-26T11:21:34.466Z,68.19
2023-03-26T11:22:56.780Z,67.58
2023-03-26T11:24:26.245Z,67.03
2023-03-26T11:26:01.977Z,68.08
2023-03-26T11:27:39.994Z,67.80
2023-03-26T11:29:03.969Z,67.59
2023-03-26T11:30:31.260Z,67.09
2023-03-26T11:31:41.400Z,66.99
2023-03-26T11:32:45.293Z,68.14
2023-03-26T11:33:48.514Z,68.68
2023-03-26T11:34:59.463Z,68.92
2023-03-26T11:36:03.112Z,68.55
2023-03-26T11:37:06.876Z,68.13
2023-03-26T11:38:33.042Z,68.87
2023-03-26T11:39:50.001Z,67.21
2023-03-26T11:40:54.083Z,65.92
2023-03-26T11:42:07.535Z,66.87
2023-03-26T11:43:10.713Z,66.69
2023-03-26T11:44:23.696Z,67.79
2023-03-26T11:45:26.730Z,66.99
2023-03-26T11:46:28.701Z,66.22
2023-03-26T11:47:38.712Z,67.08
2023-03-26T11:48:44.426Z,66.00
2023-03-26T11:49:46.088Z,66.84
2023-03-26T11:50:49.361Z,66.92
2023-03-26T11:51:51.034Z,66.51
2023-03-26T11:52:54.032Z,67.28
2023-03-26T11:53:57.787Z,65.85
2023-03-26T11:54:59.596Z,65.49
2023-03-26T11:56:18.323Z,66.25
2023-03-26T11:57:22.616Z,67.04
2023-03-26T11:58:26.618Z,66.50
2023-03-26T11:59:57.070Z,66.70
2023-03-26T12:00:59.349Z,66.49
2023-03-26T12:02:09.766Z,66.19
2023-03-26T12:03:15.516Z,66.35
2023-03-26T12:04:19.715Z,66.28
2023-03-26T12:05:24.886Z,67.00
2023-03-26T12:06:27.511Z,67.34
2023-03-26T12:07:33.811Z,67.55
2023-03-26T12:08:39.251Z,66.91
2023-03-26T12:10:18.153Z,67.86
2023-03-26T12:11:22.652Z,66.75
2023-03-26T12:12:29.344Z,67.46
2023-03-26T12:13:36.527Z,67.45
2023-03-26T12:14:42.101Z,67.66
2023-03-26T12:15:43.708Z,68.08
2023-03-26T12:17:12.595Z,66.85
2023-03-26T12:18:41.154Z,66.71
2023-03-26T12:19:44.362Z,66.22
2023-03-26T12:20:45.954Z,65.88
2023-03-26T12:21:52.069Z,68.16
2023-03-26T12:23:01.183Z,66.93
2023-03-26T12:24:04.887Z,67.43
2023-03-26T12:25:16.190Z,66.17
2023-03-26T12:26:20.772Z,66.32
2023-03-26T12:27:25.249Z,66.69
2023-03-26T12:28:31.259Z,66.04
2023-03-26T12:29:34.639Z,66.02
2023-03-26T12:30:37.924Z,65.79
2023-03-26T12:32:04.823Z,65.27
2023-03-26T12:33:11.599Z,65.00
2023-03-26T12:34:20.042Z,65.04
2023-03-26T12:35:27.360Z,64.77
2023-03-26T12:36:31.147Z,64.56
2023-03-26T12:37:36.158Z,65.25
2023-03-26T12:38:39.555Z,64.73
2023-03-26T12:40:07.250Z,64.74
2023-03-26T12:42:25.918Z,64.67
2023-03-26T12:44:44.020Z,63.28
2023-03-26T12:44:55.186Z,62.94
2023-03-26T12:45:16.860Z,63.69
2023-03-26T12:48:00.298Z,64.04
2023-03-26T12:48:00.711Z,63.33
2023-03-26T12:49:06.638Z,60.94
2023-03-26T12:50:13.104Z,62.00
2023-03-26T12:51:18.855Z,61.88
2023-03-26T12:52:20.285Z,61.90
2023-03-26T12:53:28.393Z,61.14
2023-03-26T12:54:46.104Z,59.07
2023-03-26T12:55:57.174Z,58.92
2023-03-26T12:57:20.616Z,58.35
2023-03-26T12:58:32.392Z,59.35
2023-03-26T12:59:39.709Z,58.90
2023-03-26T13:01:07.462Z,60.12
2023-03-26T13:02:16.033Z,60.03
2023-03-26T13:03:33.288Z,57.75
2023-03-26T13:04:55.005Z,59.04
2023-03-26T13:06:18.324Z,57.64
2023-03-26T13:07:39.885Z,56.67
2023-03-26T13:08:49.770Z,55.48
2023-03-26T13:09:54.116Z,54.37
2023-03-26T13:11:07.449Z,53.59
2023-03-26T13:12:21.494Z,52.72
2023-03-26T13:14:00.840Z,52.61
2023-03-26T13:15:26.628Z,51.68
2023-03-26T13:16:31.123Z,53.18
2023-03-26T13:17:38.542Z,51.40
2023-03-26T13:18:57.523Z,51.06
2023-03-26T13:20:01.854Z,50.73
2023-03-26T13:21:28.665Z,50.69
2023-03-26T13:22:42.500Z,50.23
2023-03-26T13:24:31.626Z,50.20
2023-03-26T13:25:54.873Z,50.42
2023-03-26T13:26:59.329Z,49.14
2023-03-26T13:28:19.037Z,49.24
2023-03-26T13:29:23.628Z,48.74
2023-03-26T13:30:32.384Z,49.71
2023-03-26T13:31:46.407Z,49.67
2023-03-26T13:33:20.982Z,49.23
2023-03-26T13:34:28.219Z,48.80
2023-03-26T13:35:39.874Z,49.08
2023-03-26T13:36:41.457Z,49.15
2023-03-26T13:37:55.193Z,49.29
2023-03-26T13:39:24.059Z,49.56
2023-03-26T13:41:10.061Z,49.36
2023-03-26T13:42:57.035Z,49.05
2023-03-26T13:44:19.085Z,48.40
2023-03-26T13:45:25.241Z,48.90
2023-03-26T13:46:37.452Z,49.54
2023-03-26T13:47:42.824Z,49.07
2023-03-26T13:49:06.367Z,49.50
2023-03-26T13:50:26.480Z,48.63
2023-03-26T13:51:34.094Z,50.45
2023-03-26T13:52:40.264Z,51.22
2023-03-26T13:53:45.424Z,51.36
2023-03-26T13:55:07.041Z,51.81
2023-03-26T13:56:09.514Z,50.78
2023-03-26T13:57:29.918Z,50.03
2023-03-26T13:58:47.462Z,50.00
2023-03-26T14:00:06.837Z,50.80
2023-03-26T14:01:11.113Z,50.69
2023-03-26T14:02:33.368Z,51.04
2023-03-26T14:03:58.500Z,52.00
2023-03-26T14:05:31.450Z,54.75
2023-03-26T14:07:01.736Z,58.15
2023-03-26T14:08:12.996Z,59.86
2023-03-26T14:09:19.939Z,60.06
2023-03-26T14:10:24.823Z,58.72
2023-03-26T14:11:57.973Z,57.10
2023-03-26T14:13:21.752Z,56.55
2023-03-26T14:14:49.120Z,56.02
2023-03-26T14:15:54.780Z,55.58
2023-03-26T14:17:02.392Z,52.91
2023-03-26T14:18:20.643Z,51.97
2023-03-26T14:19:57.228Z,51.23
2023-03-26T14:21:23.139Z,49.65
2023-03-26T14:22:47.404Z,48.81
2023-03-26T14:23:57.463Z,47.37
2023-03-26T14:25:08.820Z,48.12
2023-03-26T14:26:43.586Z,48.58
2023-03-26T14:28:22.703Z,47.80
2023-03-26T14:29:56.328Z,47.25
2023-03-26T14:31:08.168Z,46.54
2023-03-26T14:32:47.112Z,46.82
2023-03-26T14:34:08.839Z,45.94
2023-03-26T14:35:28.495Z,46.14
2023-03-26T14:36:42.081Z,45.26
2023-03-26T14:37:53.008Z,44.32
2023-03-26T14:39:09.347Z,44.78
2023-03-26T14:40:15.459Z,44.58
2023-03-26T14:41:47.611Z,43.97
2023-03-26T14:42:58.994Z,43.86
2023-03-26T14:44:28.072Z,43.25
2023-03-26T14:45:33.280Z,43.28
2023-03-26T14:47:08.898Z,43.28
2023-03-26T14:48:32.053Z,41.49
2023-03-26T14:50:11.418Z,41.36
2023-03-26T14:51:21.661Z,41.56
2023-03-26T14:52:41.322Z,41.29
2023-03-26T14:53:48.520Z,41.26
2023-03-26T14:54:52.577Z,40.65
2023-03-26T14:55:54.282Z,41.38